sensor_id;sensor_type;location;lat;lon;timestamp;pressure;altitude;pressure_sealevel;temperature;humidity
59435;BME280;45241;49.768;8.636;2023-05-23T00:00:22;100036.97;;;19.35;100.00
59435;BME280;45241;49.768;8.636;2023-05-23T00:02:47;100024.94;;;19.31;100.00
59435;BME280;45241;49.768;8.636;2023-05-23T00:05:13;100033.47;;;19.40;100.00
59435;BME280;45241;49.768;8.636;2023-05-23T00:07:42;100027.47;;;19.16;100.00
59435;BME280;45241;49.768;8.636;2023-05-23T00:10:08;100031.78;;;19.12;100.00
59435;BME280;45241;49.768;8.636;2023-05-23T00:12:33;100028.50;;;19.10;100.00
59435;BME280;45241;49.768;8.636;2023-05-23T00:14:59;100030.50;;;19.20;100.00
59435;BME280;45241;49.768;8.636;2023-05-23T00:17:25;100023.44;;;19.19;100.00
59435;BME280;45241;49.768;8.636;2023-05-23T00:19:50;100030.00;;;19.01;100.00
59435;BME280;45241;49.768;8.636;2023-05-23T00:22:17;100032.34;;;19.14;100.00
59435;BME280;45241;49.768;8.636;2023-05-23T00:24:42;100031.28;;;19.15;100.00
59435;BME280;45241;49.768;8.636;2023-05-23T00:27:08;100043.16;;;19.09;100.00
59435;BME280;45241;49.768;8.636;2023-05-23T00:29:33;100039.75;;;18.97;100.00
59435;BME280;45241;49.768;8.636;2023-05-23T00:31:58;100038.72;;;19.03;100.00
59435;BME280;45241;49.768;8.636;2023-05-23T00:34:24;100037.03;;;18.97;100.00
59435;BME280;45241;49.768;8.636;2023-05-23T00:36:49;100032.16;;;18.99;100.00
59435;BME280;45241;49.768;8.636;2023-05-23T00:39:15;100038.50;;;18.88;100.00
59435;BME280;45241;49.768;8.636;2023-05-23T00:41:48;100037.94;;;18.86;100.00
59435;BME280;45241;49.768;8.636;2023-05-23T00:44:14;100036.31;;;18.85;100.00
59435;BME280;45241;49.768;8.636;2023-05-23T00:46:42;100036.44;;;18.78;100.00
59435;BME280;45241;49.768;8.636;2023-05-23T00:49:10;100038.78;;;18.69;100.00
59435;BME280;45241;49.768;8.636;2023-05-23T00:51:36;100043.47;;;18.57;100.00
59435;BME280;45241;49.768;8.636;2023-05-23T00:54:03;100049.22;;;18.61;100.00
59435;BME280;45241;49.768;8.636;2023-05-23T00:56:30;100045.13;;;18.58;100.00
59435;BME280;45241;49.768;8.636;2023-05-23T00:58:55;100044.22;;;18.69;100.00
59435;BME280;45241;49.768;8.636;2023-05-23T01:01:21;100043.13;;;18.54;100.00
59435;BME280;45241;49.768;8.636;2023-05-23T01:03:48;100046.25;;;18.62;100.00
59435;BME280;45241;49.768;8.636;2023-05-23T01:06:14;100049.03;;;18.67;100.00
59435;BME280;45241;49.768;8.636;2023-05-23T01:08:41;100051.63;;;18.57;100.00
59435;BME280;45241;49.768;8.636;2023-05-23T01:11:16;100067.81;;;18.52;100.00
59435;BME280;45241;49.768;8.636;2023-05-23T01:13:51;100056.03;;;18.63;100.00
59435;BME280;45241;49.768;8.636;2023-05-23T01:16:34;100051.75;;;18.67;100.00
59435;BME280;45241;49.768;8.636;2023-05-23T01:21:37;100057.78;;;18.36;100.00
59435;BME280;45241;49.768;8.636;2023-05-23T01:24:46;100055.88;;;18.53;100.00
59435;BME280;45241;49.768;8.636;2023-05-23T01:27:48;100059.59;;;18.47;100.00
59435;BME280;45241;49.768;8.636;2023-05-23T01:30:16;100060.16;;;18.49;100.00
59435;BME280;45241;49.768;8.636;2023-05-23T01:32:43;100059.50;;;18.59;100.00
59435;BME280;45241;49.768;8.636;2023-05-23T01:35:09;100062.06;;;18.32;100.00
59435;BME280;45241;49.768;8.636;2023-05-23T01:37:35;100066.44;;;18.33;100.00
59435;BME280;45241;49.768;8.636;2023-05-23T01:40:00;100058.69;;;18.58;100.00
59435;BME280;45241;49.768;8.636;2023-05-23T01:42:25;100068.81;;;18.46;100.00
59435;BME280;45241;49.768;8.636;2023-05-23T01:44:52;100076.78;;;18.36;100.00
59435;BME280;45241;49.768;8.636;2023-05-23T01:47:18;100069.88;;;18.45;100.00
59435;BME280;45241;49.768;8.636;2023-05-23T01:49:46;100071.44;;;18.41;100.00
59435;BME280;45241;49.768;8.636;2023-05-23T01:52:12;100068.97;;;18.39;100.00
59435;BME280;45241;49.768;8.636;2023-05-23T01:54:39;100075.81;;;18.42;100.00
59435;BME280;45241;49.768;8.636;2023-05-23T01:57:07;100083.34;;;18.40;100.00
59435;BME280;45241;49.768;8.636;2023-05-23T01:59:34;100079.31;;;18.26;100.00
59435;BME280;45241;49.768;8.636;2023-05-23T02:01:59;100076.72;;;18.31;100.00
59435;BME280;45241;49.768;8.636;2023-05-23T02:04:26;100079.16;;;18.32;100.00
59435;BME280;45241;49.768;8.636;2023-05-23T02:06:52;100082.88;;;18.43;100.00
59435;BME280;45241;49.768;8.636;2023-05-23T02:09:17;100068.97;;;18.39;100.00
59435;BME280;45241;49.768;8.636;2023-05-23T02:11:42;100067.09;;;18.57;100.00
59435;BME280;45241;49.768;8.636;2023-05-23T02:14:08;100063.03;;;18.26;100.00
59435;BME280;45241;49.768;8.636;2023-05-23T02:16:33;100069.03;;;18.28;100.00
59435;BME280;45241;49.768;8.636;2023-05-23T02:19:01;100078.94;;;18.34;100.00
59435;BME280;45241;49.768;8.636;2023-05-23T02:21:26;100081.53;;;18.29;100.00
59435;BME280;45241;49.768;8.636;2023-05-23T02:23:51;100083.69;;;18.27;100.00
59435;BME280;45241;49.768;8.636;2023-05-23T02:26:17;100079.88;;;18.28;100.00
59435;BME280;45241;49.768;8.636;2023-05-23T02:28:42;100087.13;;;18.22;100.00
59435;BME280;45241;49.768;8.636;2023-05-23T02:31:08;100085.75;;;18.19;100.00
59435;BME280;45241;49.768;8.636;2023-05-23T02:33:33;100087.47;;;18.26;100.00
59435;BME280;45241;49.768;8.636;2023-05-23T02:35:58;100105.03;;;18.06;100.00
59435;BME280;45241;49.768;8.636;2023-05-23T02:38:23;100101.34;;;18.12;100.00
59435;BME280;45241;49.768;8.636;2023-05-23T02:40:51;100096.78;;;18.30;100.00
59435;BME280;45241;49.768;8.636;2023-05-23T02:43:18;100111.16;;;18.30;100.00
59435;BME280;45241;49.768;8.636;2023-05-23T02:45:43;100112.75;;;18.43;100.00
59435;BME280;45241;49.768;8.636;2023-05-23T02:48:08;100113.63;;;18.48;100.00
59435;BME280;45241;49.768;8.636;2023-05-23T02:50:34;100123.41;;;18.33;100.00
59435;BME280;45241;49.768;8.636;2023-05-23T02:52:59;100118.75;;;18.45;100.00
59435;BME280;45241;49.768;8.636;2023-05-23T02:55:24;100133.38;;;18.44;100.00
59435;BME280;45241;49.768;8.636;2023-05-23T02:57:50;100134.91;;;18.40;100.00
59435;BME280;45241;49.768;8.636;2023-05-23T03:00:15;100131.75;;;18.43;100.00
59435;BME280;45241;49.768;8.636;2023-05-23T03:02:41;100138.88;;;18.49;100.00
59435;BME280;45241;49.768;8.636;2023-05-23T03:05:07;100133.38;;;18.44;100.00
59435;BME280;45241;49.768;8.636;2023-05-23T03:07:32;100135.66;;;18.52;100.00
59435;BME280;45241;49.768;8.636;2023-05-23T03:09:58;100139.78;;;18.55;100.00
59435;BME280;45241;49.768;8.636;2023-05-23T03:12:24;100134.91;;;18.40;100.00
59435;BME280;45241;49.768;8.636;2023-05-23T03:14:50;100136.09;;;18.61;100.00
59435;BME280;45241;49.768;8.636;2023-05-23T03:17:15;100144.75;;;18.58;100.00
59435;BME280;45241;49.768;8.636;2023-05-23T03:19:40;100134.72;;;18.58;100.00
59435;BME280;45241;49.768;8.636;2023-05-23T03:22:06;100134.53;;;18.48;100.00
59435;BME280;45241;49.768;8.636;2023-05-23T03:24:31;100136.25;;;18.37;100.00
59435;BME280;45241;49.768;8.636;2023-05-23T03:26:56;100136.28;;;18.26;100.00
59435;BME280;45241;49.768;8.636;2023-05-23T03:29:22;100149.63;;;18.27;100.00
59435;BME280;45241;49.768;8.636;2023-05-23T03:31:47;100147.44;;;18.12;100.00
59435;BME280;45241;49.768;8.636;2023-05-23T03:34:13;100140.72;;;18.15;100.00
59435;BME280;45241;49.768;8.636;2023-05-23T03:36:38;100151.13;;;17.78;100.00
59435;BME280;45241;49.768;8.636;2023-05-23T03:39:04;100156.25;;;18.03;100.00
59435;BME280;45241;49.768;8.636;2023-05-23T03:41:30;100148.22;;;17.96;100.00
59435;BME280;45241;49.768;8.636;2023-05-23T03:43:55;100154.44;;;18.08;100.00
59435;BME280;45241;49.768;8.636;2023-05-23T03:46:20;100158.22;;;18.07;100.00
59435;BME280;45241;49.768;8.636;2023-05-23T03:48:46;100161.41;;;18.04;100.00
59435;BME280;45241;49.768;8.636;2023-05-23T03:51:11;100161.22;;;17.94;100.00
59435;BME280;45241;49.768;8.636;2023-05-23T03:53:38;100155.59;;;17.84;100.00
59435;BME280;45241;49.768;8.636;2023-05-23T03:56:03;100152.06;;;18.12;100.00
59435;BME280;45241;49.768;8.636;2023-05-23T03:58:28;100161.06;;;18.01;100.00
59435;BME280;45241;49.768;8.636;2023-05-23T04:00:54;100156.69;;;18.00;100.00
59435;BME280;45241;49.768;8.636;2023-05-23T04:03:19;100155.28;;;18.26;100.00
59435;BME280;45241;49.768;8.636;2023-05-23T04:05:44;100169.84;;;18.19;100.00
59435;BME280;45241;49.768;8.636;2023-05-23T04:08:10;100166.72;;;18.28;100.00
59435;BME280;45241;49.768;8.636;2023-05-23T04:10:35;100165.75;;;18.34;100.00
59435;BME280;45241;49.768;8.636;2023-05-23T04:13:00;100175.34;;;18.25;100.00
59435;BME280;45241;49.768;8.636;2023-05-23T04:15:26;100183.34;;;18.31;100.00
59435;BME280;45241;49.768;8.636;2023-05-23T04:17:52;100188.53;;;18.33;100.00
59435;BME280;45241;49.768;8.636;2023-05-23T04:20:17;100195.31;;;18.18;100.00
59435;BME280;45241;49.768;8.636;2023-05-23T04:22:43;100188.00;;;18.19;100.00
59435;BME280;45241;49.768;8.636;2023-05-23T04:25:08;100194.59;;;18.23;100.00
59435;BME280;45241;49.768;8.636;2023-05-23T04:27:34;100198.50;;;18.15;100.00
59435;BME280;45241;49.768;8.636;2023-05-23T04:29:59;100193.19;;;18.20;100.00
59435;BME280;45241;49.768;8.636;2023-05-23T04:32:25;100199.78;;;18.25;100.00
59435;BME280;45241;49.768;8.636;2023-05-23T04:34:51;100197.25;;;18.35;100.00
59435;BME280;45241;49.768;8.636;2023-05-23T04:37:17;100202.94;;;18.33;100.00
59435;BME280;45241;49.768;8.636;2023-05-23T04:39:47;100203.63;;;18.29;100.00
59435;BME280;45241;49.768;8.636;2023-05-23T04:42:12;100193.72;;;18.34;100.00
59435;BME280;45241;49.768;8.636;2023-05-23T04:44:38;100196.56;;;18.28;100.00
59435;BME280;45241;49.768;8.636;2023-05-23T04:47:03;100206.41;;;18.45;100.00
59435;BME280;45241;49.768;8.636;2023-05-23T04:49:28;100211.56;;;18.30;100.00
59435;BME280;45241;49.768;8.636;2023-05-23T04:51:54;100208.03;;;18.30;100.00
59435;BME280;45241;49.768;8.636;2023-05-23T04:54:19;100214.28;;;18.30;100.00
59435;BME280;45241;49.768;8.636;2023-05-23T04:56:45;100217.22;;;18.29;100.00
59435;BME280;45241;49.768;8.636;2023-05-23T04:59:10;100219.34;;;18.27;100.00
59435;BME280;45241;49.768;8.636;2023-05-23T05:01:35;100212.84;;;18.28;100.00
59435;BME280;45241;49.768;8.636;2023-05-23T05:04:04;100221.69;;;18.35;100.00
59435;BME280;45241;49.768;8.636;2023-05-23T05:06:29;100227.72;;;18.25;100.00
59435;BME280;45241;49.768;8.636;2023-05-23T05:08:55;100226.41;;;17.99;100.00
59435;BME280;45241;49.768;8.636;2023-05-23T05:11:20;100229.91;;;18.40;100.00
59435;BME280;45241;49.768;8.636;2023-05-23T05:13:46;100233.34;;;18.35;100.00
59435;BME280;45241;49.768;8.636;2023-05-23T05:16:11;100225.66;;;18.44;100.00
59435;BME280;45241;49.768;8.636;2023-05-23T05:18:37;100232.38;;;18.70;100.00
59435;BME280;45241;49.768;8.636;2023-05-23T05:21:03;100235.66;;;18.55;100.00
59435;BME280;45241;49.768;8.636;2023-05-23T05:23:30;100234.97;;;18.19;100.00
59435;BME280;45241;49.768;8.636;2023-05-23T05:25:56;100234.56;;;18.28;100.00
59435;BME280;45241;49.768;8.636;2023-05-23T05:28:21;100235.19;;;18.46;100.00
59435;BME280;45241;49.768;8.636;2023-05-23T05:30:47;100235.94;;;18.42;100.00
59435;BME280;45241;49.768;8.636;2023-05-23T05:33:18;100243.63;;;18.62;100.00
59435;BME280;45241;49.768;8.636;2023-05-23T05:35:43;100256.94;;;18.63;100.00
59435;BME280;45241;49.768;8.636;2023-05-23T05:38:08;100249.16;;;18.38;100.00
59435;BME280;45241;49.768;8.636;2023-05-23T05:40:35;100255.00;;;18.18;100.00
59435;BME280;45241;49.768;8.636;2023-05-23T05:43:00;100258.91;;;18.51;100.00
59435;BME280;45241;49.768;8.636;2023-05-23T05:45:25;100252.44;;;18.40;100.00
59435;BME280;45241;49.768;8.636;2023-05-23T05:47:51;100260.38;;;18.42;100.00
59435;BME280;45241;49.768;8.636;2023-05-23T05:50:16;100263.47;;;18.34;100.00
59435;BME280;45241;49.768;8.636;2023-05-23T05:52:43;100266.28;;;18.27;100.00
59435;BME280;45241;49.768;8.636;2023-05-23T05:55:10;100271.34;;;18.35;100.00
59435;BME280;45241;49.768;8.636;2023-05-23T05:57:36;100267.72;;;18.58;100.00
59435;BME280;45241;49.768;8.636;2023-05-23T06:00:06;100274.22;;;18.57;99.78
59435;BME280;45241;49.768;8.636;2023-05-23T06:02:41;100270.72;;;18.45;97.60
59435;BME280;45241;49.768;8.636;2023-05-23T06:05:11;100274.94;;;18.12;97.23
59435;BME280;45241;49.768;8.636;2023-05-23T06:07:39;100288.69;;;18.34;99.05
59435;BME280;45241;49.768;8.636;2023-05-23T06:10:05;100282.84;;;18.54;97.28
59435;BME280;45241;49.768;8.636;2023-05-23T06:12:31;100284.72;;;18.54;96.74
59435;BME280;45241;49.768;8.636;2023-05-23T06:14:57;100288.66;;;18.46;96.27
59435;BME280;45241;49.768;8.636;2023-05-23T06:17:22;100281.88;;;18.60;97.08
59435;BME280;45241;49.768;8.636;2023-05-23T06:19:47;100289.16;;;18.71;95.83
59435;BME280;45241;49.768;8.636;2023-05-23T06:22:13;100292.38;;;18.68;96.44
59435;BME280;45241;49.768;8.636;2023-05-23T06:24:38;100294.06;;;18.58;95.49
59435;BME280;45241;49.768;8.636;2023-05-23T06:27:03;100295.66;;;18.42;95.90
59435;BME280;45241;49.768;8.636;2023-05-23T06:29:29;100296.41;;;18.54;95.17
59435;BME280;45241;49.768;8.636;2023-05-23T06:31:55;100300.56;;;18.57;94.87
59435;BME280;45241;49.768;8.636;2023-05-23T06:34:20;100295.88;;;18.40;94.11
59435;BME280;45241;49.768;8.636;2023-05-23T06:36:46;100298.81;;;18.39;95.59
59435;BME280;45241;49.768;8.636;2023-05-23T06:39:12;100307.66;;;18.46;95.65
59435;BME280;45241;49.768;8.636;2023-05-23T06:41:38;100304.56;;;18.54;94.23
59435;BME280;45241;49.768;8.636;2023-05-23T06:44:03;100297.38;;;18.48;94.18
59435;BME280;45241;49.768;8.636;2023-05-23T06:46:28;100311.25;;;18.63;94.24
59435;BME280;45241;49.768;8.636;2023-05-23T06:48:54;100306.81;;;18.57;93.13
59435;BME280;45241;49.768;8.636;2023-05-23T06:51:19;100309.78;;;18.84;93.43
59435;BME280;45241;49.768;8.636;2023-05-23T06:53:44;100301.09;;;18.70;90.94
59435;BME280;45241;49.768;8.636;2023-05-23T06:56:10;100301.09;;;18.70;90.93
59435;BME280;45241;49.768;8.636;2023-05-23T06:58:35;100306.75;;;18.69;91.02
59435;BME280;45241;49.768;8.636;2023-05-23T07:01:00;100311.75;;;18.89;89.97
59435;BME280;45241;49.768;8.636;2023-05-23T07:03:25;100308.59;;;18.80;88.14
59435;BME280;45241;49.768;8.636;2023-05-23T07:05:51;100308.44;;;18.58;87.90
59435;BME280;45241;49.768;8.636;2023-05-23T07:08:16;100318.09;;;18.66;86.64
59435;BME280;45241;49.768;8.636;2023-05-23T07:10:42;100318.00;;;18.61;86.92
59435;BME280;45241;49.768;8.636;2023-05-23T07:13:07;100314.72;;;18.59;87.06
59435;BME280;45241;49.768;8.636;2023-05-23T07:15:33;100321.25;;;18.46;87.65
59435;BME280;45241;49.768;8.636;2023-05-23T07:17:58;100314.22;;;18.62;87.97
59435;BME280;45241;49.768;8.636;2023-05-23T07:20:23;100319.03;;;18.71;88.69
59435;BME280;45241;49.768;8.636;2023-05-23T07:22:48;100323.63;;;18.83;88.39
59435;BME280;45241;49.768;8.636;2023-05-23T07:25:16;100319.88;;;18.60;89.87
59435;BME280;45241;49.768;8.636;2023-05-23T07:27:41;100320.19;;;18.75;86.95
59435;BME280;45241;49.768;8.636;2023-05-23T07:30:07;100322.44;;;18.67;89.34
59435;BME280;45241;49.768;8.636;2023-05-23T07:32:34;100330.84;;;18.65;87.85
59435;BME280;45241;49.768;8.636;2023-05-23T07:34:59;100329.69;;;18.61;88.31
59435;BME280;45241;49.768;8.636;2023-05-23T07:37:25;100316.28;;;18.83;87.10
59435;BME280;45241;49.768;8.636;2023-05-23T07:39:52;100323.06;;;18.69;86.89
59435;BME280;45241;49.768;8.636;2023-05-23T07:42:17;100320.25;;;18.92;85.74
59435;BME280;45241;49.768;8.636;2023-05-23T07:44:42;100321.06;;;18.93;87.00
59435;BME280;45241;49.768;8.636;2023-05-23T07:47:08;100324.28;;;19.06;86.00
59435;BME280;45241;49.768;8.636;2023-05-23T07:49:33;100323.97;;;19.20;86.85
59435;BME280;45241;49.768;8.636;2023-05-23T07:51:59;100333.06;;;19.25;85.53
59435;BME280;45241;49.768;8.636;2023-05-23T07:54:25;100325.56;;;19.32;84.96
59435;BME280;45241;49.768;8.636;2023-05-23T07:56:52;100314.28;;;19.41;83.31
59435;BME280;45241;49.768;8.636;2023-05-23T07:59:18;100329.28;;;19.26;86.70
59435;BME280;45241;49.768;8.636;2023-05-23T08:01:43;100327.38;;;19.44;86.89
59435;BME280;45241;49.768;8.636;2023-05-23T08:04:08;100329.00;;;19.11;86.02
59435;BME280;45241;49.768;8.636;2023-05-23T08:06:34;100328.84;;;19.18;85.41
59435;BME280;45241;49.768;8.636;2023-05-23T08:09:00;100326.13;;;19.18;86.08
59435;BME280;45241;49.768;8.636;2023-05-23T08:11:26;100316.84;;;19.30;85.73
59435;BME280;45241;49.768;8.636;2023-05-23T08:13:53;100319.78;;;19.46;82.27
59435;BME280;45241;49.768;8.636;2023-05-23T08:16:18;100326.56;;;19.43;82.54
59435;BME280;45241;49.768;8.636;2023-05-23T08:18:43;100334.78;;;19.31;85.94
59435;BME280;45241;49.768;8.636;2023-05-23T08:21:09;100325.88;;;19.70;84.15
59435;BME280;45241;49.768;8.636;2023-05-23T08:23:34;100326.41;;;19.50;85.70
59435;BME280;45241;49.768;8.636;2023-05-23T08:25:59;100340.50;;;19.47;85.32
59435;BME280;45241;49.768;8.636;2023-05-23T08:28:25;100335.97;;;19.52;82.99
59435;BME280;45241;49.768;8.636;2023-05-23T08:30:50;100330.59;;;19.57;84.59
59435;BME280;45241;49.768;8.636;2023-05-23T08:33:16;100333.81;;;19.37;85.32
59435;BME280;45241;49.768;8.636;2023-05-23T08:35:41;100332.31;;;19.30;84.38
59435;BME280;45241;49.768;8.636;2023-05-23T08:38:08;100338.09;;;19.33;84.90
59435;BME280;45241;49.768;8.636;2023-05-23T08:40:35;100334.88;;;19.36;84.77
59435;BME280;45241;49.768;8.636;2023-05-23T08:43:00;100327.72;;;19.64;85.36
59435;BME280;45241;49.768;8.636;2023-05-23T08:45:26;100337.94;;;19.40;83.24
59435;BME280;45241;49.768;8.636;2023-05-23T08:47:54;100341.22;;;19.25;86.24
59435;BME280;45241;49.768;8.636;2023-05-23T08:50:20;100333.81;;;19.54;86.43
59435;BME280;45241;49.768;8.636;2023-05-23T08:52:57;100340.81;;;19.33;86.17
59435;BME280;45241;49.768;8.636;2023-05-23T08:55:28;100340.81;;;19.50;84.78
59435;BME280;45241;49.768;8.636;2023-05-23T08:57:55;100340.91;;;19.72;84.50
59435;BME280;45241;49.768;8.636;2023-05-23T09:00:22;100338.66;;;19.69;83.70
59435;BME280;45241;49.768;8.636;2023-05-23T09:02:49;100339.06;;;19.94;84.99
59435;BME280;45241;49.768;8.636;2023-05-23T09:05:15;100335.06;;;20.19;80.95
59435;BME280;45241;49.768;8.636;2023-05-23T09:07:43;100346.41;;;19.94;82.96
59435;BME280;45241;49.768;8.636;2023-05-23T09:10:12;100342.78;;;19.55;82.97
59435;BME280;45241;49.768;8.636;2023-05-23T09:12:38;100359.03;;;19.33;83.33
59435;BME280;45241;49.768;8.636;2023-05-23T09:15:08;100353.59;;;19.50;85.40
59435;BME280;45241;49.768;8.636;2023-05-23T09:17:33;100346.00;;;20.02;85.64
59435;BME280;45241;49.768;8.636;2023-05-23T09:20:00;100349.38;;;19.92;85.20
59435;BME280;45241;49.768;8.636;2023-05-23T09:22:27;100352.09;;;20.31;83.86
59435;BME280;45241;49.768;8.636;2023-05-23T09:24:54;100349.72;;;19.79;84.94
59435;BME280;45241;49.768;8.636;2023-05-23T09:27:19;100340.41;;;19.92;85.40
59435;BME280;45241;49.768;8.636;2023-05-23T09:29:44;100341.00;;;20.16;83.16
59435;BME280;45241;49.768;8.636;2023-05-23T09:32:15;100345.56;;;20.32;82.84
59435;BME280;45241;49.768;8.636;2023-05-23T09:34:57;100347.47;;;20.32;84.14
59435;BME280;45241;49.768;8.636;2023-05-23T09:37:48;100349.19;;;20.38;82.05
59435;BME280;45241;49.768;8.636;2023-05-23T09:40:14;100355.13;;;19.96;83.85
59435;BME280;45241;49.768;8.636;2023-05-23T09:42:46;100348.03;;;20.12;81.69
59435;BME280;45241;49.768;8.636;2023-05-23T09:45:13;100349.13;;;19.94;81.08
59435;BME280;45241;49.768;8.636;2023-05-23T09:47:38;100348.72;;;20.02;84.32
59435;BME280;45241;49.768;8.636;2023-05-23T09:50:12;100348.97;;;20.01;84.12
59435;BME280;45241;49.768;8.636;2023-05-23T09:52:38;100344.91;;;20.03;84.88
59435;BME280;45241;49.768;8.636;2023-05-23T09:55:04;100347.84;;;19.80;81.55
59435;BME280;45241;49.768;8.636;2023-05-23T09:57:33;100349.53;;;20.03;82.96
59435;BME280;45241;49.768;8.636;2023-05-23T10:00:00;100350.41;;;20.25;81.73
59435;BME280;45241;49.768;8.636;2023-05-23T10:02:54;100347.06;;;19.84;84.15
59435;BME280;45241;49.768;8.636;2023-05-23T10:08:01;100343.53;;;20.01;83.39
59435;BME280;45241;49.768;8.636;2023-05-23T10:10:31;100349.38;;;19.92;81.91
59435;BME280;45241;49.768;8.636;2023-05-23T10:12:59;100356.69;;;20.09;84.62
59435;BME280;45241;49.768;8.636;2023-05-23T10:15:29;100348.50;;;19.87;82.75
59435;BME280;45241;49.768;8.636;2023-05-23T10:18:11;100364.81;;;19.87;81.61
59435;BME280;45241;49.768;8.636;2023-05-23T10:20:42;100357.47;;;19.87;82.11
59435;BME280;45241;49.768;8.636;2023-05-23T10:23:10;100350.63;;;19.85;82.92
59435;BME280;45241;49.768;8.636;2023-05-23T10:25:36;100362.44;;;19.74;84.47
59435;BME280;45241;49.768;8.636;2023-05-23T10:28:02;100363.13;;;19.69;82.16
59435;BME280;45241;49.768;8.636;2023-05-23T10:30:28;100364.97;;;19.80;80.04
59435;BME280;45241;49.768;8.636;2023-05-23T10:32:58;100365.28;;;19.67;82.88
59435;BME280;45241;49.768;8.636;2023-05-23T10:38:22;100374.72;;;19.76;82.51
59435;BME280;45241;49.768;8.636;2023-05-23T10:41:01;100375.50;;;19.93;81.53
59435;BME280;45241;49.768;8.636;2023-05-23T10:43:54;100366.56;;;20.15;83.33
59435;BME280;45241;49.768;8.636;2023-05-23T10:46:21;100369.19;;;19.88;80.16
59435;BME280;45241;49.768;8.636;2023-05-23T10:48:46;100364.59;;;20.10;81.64
59435;BME280;45241;49.768;8.636;2023-05-23T10:51:15;100371.47;;;20.35;82.14
59435;BME280;45241;49.768;8.636;2023-05-23T10:53:43;100373.91;;;20.75;78.74
59435;BME280;45241;49.768;8.636;2023-05-23T10:56:10;100365.84;;;20.85;78.57
59435;BME280;45241;49.768;8.636;2023-05-23T10:58:37;100368.72;;;21.00;78.41
59435;BME280;45241;49.768;8.636;2023-05-23T11:01:07;100365.66;;;21.19;76.24
59435;BME280;45241;49.768;8.636;2023-05-23T11:06:29;100362.25;;;21.06;76.03
59435;BME280;45241;49.768;8.636;2023-05-23T11:09:25;100367.81;;;20.90;78.33
59435;BME280;45241;49.768;8.636;2023-05-23T11:12:01;100361.69;;;20.77;78.24
59435;BME280;45241;49.768;8.636;2023-05-23T11:14:51;100368.94;;;20.50;77.58
59435;BME280;45241;49.768;8.636;2023-05-23T11:17:29;100365.84;;;20.41;78.11
59435;BME280;45241;49.768;8.636;2023-05-23T11:20:07;100370.28;;;20.25;78.71
59435;BME280;45241;49.768;8.636;2023-05-23T11:22:34;100367.22;;;20.44;78.69
59435;BME280;45241;49.768;8.636;2023-05-23T11:25:05;100375.34;;;20.61;76.13
59435;BME280;45241;49.768;8.636;2023-05-23T11:30:16;100368.34;;;20.65;74.49
59435;BME280;45241;49.768;8.636;2023-05-23T11:32:49;100375.41;;;20.88;76.36
59435;BME280;45241;49.768;8.636;2023-05-23T11:35:15;100369.50;;;20.96;75.78
59435;BME280;45241;49.768;8.636;2023-05-23T11:37:40;100372.81;;;20.76;76.97
59435;BME280;45241;49.768;8.636;2023-05-23T11:42:49;100371.25;;;20.80;77.37
59435;BME280;45241;49.768;8.636;2023-05-23T11:45:18;100380.13;;;20.70;78.76
59435;BME280;45241;49.768;8.636;2023-05-23T11:47:43;100368.81;;;20.62;76.20
59435;BME280;45241;49.768;8.636;2023-05-23T11:50:09;100361.63;;;21.26;74.19
59435;BME280;45241;49.768;8.636;2023-05-23T11:52:34;100371.63;;;22.17;75.79
59435;BME280;45241;49.768;8.636;2023-05-23T11:55:00;100362.81;;;22.52;71.42
59435;BME280;45241;49.768;8.636;2023-05-23T11:57:25;100366.44;;;21.73;73.47
59435;BME280;45241;49.768;8.636;2023-05-23T11:59:51;100367.84;;;22.23;72.79
59435;BME280;45241;49.768;8.636;2023-05-23T12:02:16;100369.44;;;22.19;72.94
59435;BME280;45241;49.768;8.636;2023-05-23T12:04:41;100366.78;;;22.29;71.18
59435;BME280;45241;49.768;8.636;2023-05-23T12:07:07;100363.75;;;22.20;69.29
59435;BME280;45241;49.768;8.636;2023-05-23T12:09:40;100358.31;;;21.83;72.38
59435;BME280;45241;49.768;8.636;2023-05-23T12:12:06;100353.16;;;21.92;71.33
59435;BME280;45241;49.768;8.636;2023-05-23T12:14:32;100357.44;;;21.78;73.27
59435;BME280;45241;49.768;8.636;2023-05-23T12:16:58;100360.81;;;21.90;73.99
59435;BME280;45241;49.768;8.636;2023-05-23T12:19:23;100356.47;;;21.94;74.79
59435;BME280;45241;49.768;8.636;2023-05-23T12:21:49;100354.97;;;21.76;73.22
59435;BME280;45241;49.768;8.636;2023-05-23T12:24:19;100349.59;;;21.86;73.68
59435;BME280;45241;49.768;8.636;2023-05-23T12:26:46;100366.19;;;21.80;72.74
59435;BME280;45241;49.768;8.636;2023-05-23T12:29:11;100363.06;;;21.61;74.24
59435;BME280;45241;49.768;8.636;2023-05-23T12:31:36;100372.44;;;21.43;74.39
59435;BME280;45241;49.768;8.636;2023-05-23T12:34:02;100367.56;;;21.50;74.95
59435;BME280;45241;49.768;8.636;2023-05-23T12:36:28;100366.13;;;22.12;72.82
59435;BME280;45241;49.768;8.636;2023-05-23T12:39:01;100373.94;;;21.29;73.90
59435;BME280;45241;49.768;8.636;2023-05-23T12:41:27;100373.75;;;21.67;72.84
59435;BME280;45241;49.768;8.636;2023-05-23T12:43:54;100372.00;;;21.88;72.88
59435;BME280;45241;49.768;8.636;2023-05-23T12:46:20;100375.59;;;21.62;74.19
59435;BME280;45241;49.768;8.636;2023-05-23T12:48:46;100375.47;;;21.47;73.88
59435;BME280;45241;49.768;8.636;2023-05-23T12:51:12;100373.56;;;22.21;72.37
59435;BME280;45241;49.768;8.636;2023-05-23T12:53:37;100378.44;;;22.62;71.13
59435;BME280;45241;49.768;8.636;2023-05-23T12:56:03;100377.72;;;21.92;72.63
59435;BME280;45241;49.768;8.636;2023-05-23T12:58:29;100382.78;;;21.73;75.95
59435;BME280;45241;49.768;8.636;2023-05-23T13:00:55;100377.66;;;21.18;77.05